PSCJT SBMO-SBJP
Flight info
| Callsign | PSCJT |
|---|---|
| Flight time | N/A |
| Altitude | 21000 |
| Route | UKARI Z35 REC |
| Aircraft | C550/M-SDFGR/S |
Departure
| Time | 2026-04-14 19:23 |
|---|---|
| Airport | Zumbi dos Palmares International Airport (SBMO) |
Arrival
| Time | N/A |
|---|---|
| Airport | Presidente Castro Pinto International Airport (SBJP) |
| Time | Latitude | Longitude | Altitude | Speed | Heading |
|---|---|---|---|---|---|
| 2026-04-14 19:12 | -9.51085 | -35.80416 | 390 ft | 0 kts | 276° |
| 2026-04-14 19:13 | -9.51085 | -35.80417 | 390 ft | 0 kts | 276° |
| 2026-04-14 19:16 | -9.51085 | -35.80418 | 390 ft | 0 kts | 276° |
| 2026-04-14 19:18 | -9.51044 | -35.80432 | 390 ft | 16 kts | 39° |
| 2026-04-14 19:18 | -9.51044 | -35.80286 | 390 ft | 20 kts | 99° |
| 2026-04-14 19:18 | -9.51058 | -35.80203 | 390 ft | 0 kts | 99° |
| 2026-04-14 19:19 | -9.51057 | -35.80209 | 390 ft | 7 kts | 277° |
| 2026-04-14 19:19 | -9.51041 | -35.80348 | 390 ft | 28 kts | 277° |
| 2026-04-14 19:19 | -9.51019 | -35.80480 | 390 ft | 10 kts | 295° |
| 2026-04-14 19:19 | -9.50978 | -35.80495 | 390 ft | 4 kts | 10° |
| 2026-04-14 19:20 | -9.50889 | -35.80481 | 390 ft | 13 kts | 9° |
| 2026-04-14 19:20 | -9.50843 | -35.80460 | 390 ft | 3 kts | 82° |
| 2026-04-14 19:20 | -9.50846 | -35.80431 | 390 ft | 0 kts | 99° |
| 2026-04-14 19:21 | -9.50848 | -35.80421 | 390 ft | 12 kts | 99° |
| 2026-04-14 19:21 | -9.50858 | -35.80355 | 390 ft | 0 kts | 99° |
| 2026-04-14 19:22 | -9.50858 | -35.80354 | 390 ft | 0 kts | 99° |
| 2026-04-14 19:22 | -9.50876 | -35.80242 | 390 ft | 64 kts | 99° |
| 2026-04-14 19:22 | -9.51021 | -35.79323 | 610 ft | 179 kts | 99° |
| 2026-04-14 19:23 | -9.51263 | -35.77774 | 1399 ft | 267 kts | 99° |
| 2026-04-14 19:23 | -9.51551 | -35.75838 | 3119 ft | 283 kts | 98° |
| 2026-04-14 19:23 | -9.51831 | -35.73879 | 3458 ft | 277 kts | 98° |
| 2026-04-14 19:23 | -9.52143 | -35.71948 | 3262 ft | 272 kts | 99° |
| 2026-04-14 19:24 | -9.52472 | -35.70045 | 3251 ft | 278 kts | 100° |
| 2026-04-14 19:24 | -9.52810 | -35.68120 | 3362 ft | 280 kts | 100° |
| 2026-04-14 19:24 | -9.53153 | -35.66175 | 3485 ft | 281 kts | 100° |
| 2026-04-14 19:24 | -9.53495 | -35.64237 | 4025 ft | 281 kts | 100° |
| 2026-04-14 19:25 | -9.53850 | -35.62303 | 4043 ft | 281 kts | 101° |
| 2026-04-14 19:25 | -9.53956 | -35.60330 | 4153 ft | 284 kts | 81° |
| 2026-04-14 19:25 | -9.53203 | -35.58507 | 4307 ft | 285 kts | 54° |
| 2026-04-14 19:25 | -9.51724 | -35.57203 | 4470 ft | 286 kts | 30° |
| 2026-04-14 19:26 | -9.49913 | -35.56400 | 4780 ft | 286 kts | 20° |
| 2026-04-14 19:26 | -9.48040 | -35.55786 | 5107 ft | 283 kts | 17° |
| 2026-04-14 19:26 | -9.46134 | -35.55230 | 5410 ft | 283 kts | 15° |
| 2026-04-14 19:26 | -9.44218 | -35.54684 | 5712 ft | 283 kts | 16° |
| 2026-04-14 19:27 | -9.42304 | -35.54115 | 6015 ft | 284 kts | 17° |
| 2026-04-14 19:27 | -9.40394 | -35.53535 | 6316 ft | 285 kts | 17° |
| 2026-04-14 19:27 | -9.38468 | -35.52947 | 6619 ft | 285 kts | 17° |
| 2026-04-14 19:27 | -9.36535 | -35.52357 | 6922 ft | 287 kts | 17° |
| 2026-04-14 19:28 | -9.34604 | -35.51770 | 7223 ft | 289 kts | 17° |
| 2026-04-14 19:28 | -9.32660 | -35.51180 | 7525 ft | 291 kts | 17° |
| 2026-04-14 19:28 | -9.30705 | -35.50588 | 7827 ft | 293 kts | 17° |
| 2026-04-14 19:28 | -9.28747 | -35.49997 | 8128 ft | 296 kts | 17° |
| 2026-04-14 19:29 | -9.26782 | -35.49405 | 8429 ft | 298 kts | 17° |
| 2026-04-14 19:29 | -9.24815 | -35.48812 | 8729 ft | 300 kts | 16° |
| 2026-04-14 19:29 | -9.22839 | -35.48218 | 9029 ft | 300 kts | 16° |
| 2026-04-14 19:29 | -9.20852 | -35.47619 | 9330 ft | 300 kts | 17° |
| 2026-04-14 19:30 | -9.18869 | -35.47023 | 9632 ft | 299 kts | 17° |
| 2026-04-14 19:30 | -9.16873 | -35.46423 | 9935 ft | 298 kts | 17° |
| 2026-04-14 19:30 | -9.14873 | -35.45823 | 10238 ft | 298 kts | 16° |
| 2026-04-14 19:30 | -9.12862 | -35.45219 | 10541 ft | 298 kts | 17° |
| 2026-04-14 19:31 | -9.10850 | -35.44615 | 10843 ft | 300 kts | 17° |
| 2026-04-14 19:31 | -9.08833 | -35.44010 | 11144 ft | 303 kts | 17° |
| 2026-04-14 19:31 | -9.06803 | -35.43400 | 11445 ft | 306 kts | 17° |
| 2026-04-14 19:31 | -9.04759 | -35.42815 | 11742 ft | 309 kts | 12° |